Impacts METAR Board INFO
IDs:

KEWR - Newark Intl, NJ, US

Updated at: 1600 UTC 19 Nov 2017
Potential Impact None Slight Moderate High
Time19/04Z 19/05Z 19/06Z 19/07Z 19/08Z 19/09Z 19/10Z 19/11Z 19/12Z 19/13Z 19/14Z 19/15Z 19/16Z
VIS10 10 10 10 8 7 7 9 9 10 10 10 10
CIG150 140 75 85 32 22 16 18 25 42 40 44 48
CoverOVCOVCBKNOVCOVCOVCBKNOVCOVCBKNBKNBKNBKN
FltCatVFRVFRVFRVFRVFRMVFRMVFRMVFRMVFRVFRVFRVFRVFR
WX-------RARARA-RA-RA-RA--------
WDir170190190190210210210200220260250280280
WSpd5 6 7 10 15 19 13 17 19 22 20 19 21
WGst-- -- -- -- 21 25 23 24 31 35 28 32 34
Raw hourly METARs
KEWR 190351Z 17005KT 10SM SCT110 OVC150 11/09 A2943 RMK AO2 PRESFR SLP965 T01110089
KEWR 190451Z 19006KT 10SM SCT095 BKN140 BKN180 OVC250 12/09 A2940 RMK AO2 SLP955 T01170094 401171011
KEWR 190551Z 19007KT 10SM SCT060 BKN075 BKN140 BKN250 13/10 A2936 RMK AO2 SLP942 60000 T01330100 10133 20089 56045
KEWR 190651Z 19010KT 10SM -RA SCT060 BKN085 OVC120 14/11 A2933 RMK AO2 RAB12 SLP931 P0000 T01440106
KEWR 190751Z 21015G21KT 8SM RA BKN032 BKN045 OVC070 14/12 A2931 RMK AO2 RAE06B33 SLP925 P0002 T01440117
KEWR 190851Z 21019G25KT 7SM RA BKN022 BKN070 OVC100 14/13 A2928 RMK AO2 PK WND 20027/0840 SLP913 P0002 60004 T01440128 58029
KEWR 190951Z 21013G23KT 7SM -RA BKN016 BKN020 14/13 A2926 RMK AO2 PK WND 20026/0855 SLP909 P0011 T01440133
KEWR 191051Z 20017G24KT 9SM -RA SCT015 BKN018 OVC035 15/13 A2923 RMK AO2 PK WND 21035/0957 SLP897 P0005 T01500133
KEWR 191151Z 22019G31KT 9SM -RA FEW018 BKN025 OVC065 14/12 A2922 RMK AO2 PK WND 22031/1129 SLP894 P0005 60025 70037 T01390117 10150 20133 56019
KEWR 191304Z 26022G35KT 10SM FEW028 BKN042 BKN100 12/07 A2929 RMK AO2 PK WND 27035/1256 PRESRR T01170067
KEWR 191351Z 25020G28KT 10SM FEW028 BKN040 BKN100 11/05 A2934 RMK AO2 PK WND 27035/1256 PRESRR SLP936 T01110050
KEWR 191451Z 28019G32KT 10SM BKN044 BKN200 11/02 A2942 RMK AO2 PK WND 29035/1433 PRESRR SLP961 60001 T01060017 53067
KEWR 191551Z 28021G34KT 10SM BKN048 11/00 A2945 RMK AO2 PK WND 28041/1459 SLP973 T01060000